createdAt,value
2023-04-08T00:01:24.816Z,33.80
2023-04-08T00:04:33.050Z,33.80
2023-04-08T00:07:41.361Z,33.80
2023-04-08T00:10:50.457Z,33.80
2023-04-08T00:13:58.376Z,33.80
2023-04-08T00:17:07.303Z,33.80
2023-04-08T00:20:15.600Z,33.80
2023-04-08T00:23:23.334Z,33.80
2023-04-08T00:26:32.860Z,33.80
2023-04-08T00:29:40.854Z,33.80
2023-04-08T00:32:48.877Z,33.80
2023-04-08T00:35:56.939Z,33.80
2023-04-08T00:39:06.814Z,33.80
2023-04-08T00:42:17.107Z,33.80
2023-04-08T00:45:24.880Z,33.80
2023-04-08T00:48:32.995Z,33.80
2023-04-08T00:51:40.906Z,33.70
2023-04-08T00:54:48.949Z,33.70
2023-04-08T00:57:58.536Z,33.70
2023-04-08T01:01:08.251Z,33.70
2023-04-08T01:04:24.094Z,33.70
2023-04-08T01:07:33.272Z,33.80
2023-04-08T01:10:42.814Z,33.80
2023-04-08T01:13:52.010Z,34.40
2023-04-08T01:17:00.336Z,33.80
2023-04-08T01:20:08.596Z,33.80
2023-04-08T01:23:19.886Z,33.80
2023-04-08T01:26:29.440Z,33.80
2023-04-08T01:29:37.295Z,33.90
2023-04-08T01:32:47.564Z,33.80
2023-04-08T01:35:56.601Z,33.80
2023-04-08T01:39:05.551Z,33.80
2023-04-08T01:42:14.808Z,33.90
2023-04-08T01:45:22.959Z,33.80
2023-04-08T01:48:30.867Z,33.90
2023-04-08T01:51:39.293Z,33.90
2023-04-08T01:54:47.439Z,33.90
2023-04-08T01:57:57.099Z,33.90
2023-04-08T02:01:06.035Z,33.90
2023-04-08T02:04:14.550Z,33.90
2023-04-08T02:07:22.625Z,33.80
2023-04-08T02:10:30.682Z,33.80
2023-04-08T02:13:40.027Z,33.80
2023-04-08T02:16:51.382Z,33.80
2023-04-08T02:20:02.050Z,33.80
2023-04-08T02:23:14.617Z,33.70
2023-04-08T02:26:22.895Z,33.70
2023-04-08T02:29:33.032Z,33.70
2023-04-08T02:32:41.037Z,33.60
2023-04-08T02:35:50.074Z,33.60
2023-04-08T02:38:58.264Z,33.60
2023-04-08T02:42:06.352Z,33.60
2023-04-08T02:45:15.962Z,33.60
2023-04-08T02:48:23.764Z,33.60
2023-04-08T02:51:32.150Z,33.60
2023-04-08T02:54:40.303Z,33.60
2023-04-08T02:57:48.556Z,33.60
2023-04-08T03:00:57.899Z,33.70
2023-04-08T03:04:06.390Z,33.60
2023-04-08T03:07:14.228Z,33.70
2023-04-08T03:10:21.987Z,33.70
2023-04-08T03:13:31.811Z,33.70
2023-04-08T03:16:41.175Z,33.70
2023-04-08T03:19:49.101Z,33.70
2023-04-08T03:22:57.067Z,33.70
2023-04-08T03:26:05.050Z,33.70
2023-04-08T03:29:13.196Z,33.70
2023-04-08T03:32:22.504Z,33.70
2023-04-08T03:35:30.355Z,33.70
2023-04-08T03:38:38.520Z,33.70
2023-04-08T03:41:46.581Z,33.70
2023-04-08T03:44:54.428Z,33.70
2023-04-08T03:48:03.941Z,33.70
2023-04-08T03:51:12.193Z,33.70
2023-04-08T03:54:20.096Z,33.70
2023-04-08T03:57:28.363Z,33.70
2023-04-08T04:00:37.110Z,33.70
2023-04-08T04:03:46.657Z,33.70
2023-04-08T04:06:54.683Z,33.70
2023-04-08T04:10:02.926Z,33.80
2023-04-08T04:13:11.216Z,33.80
2023-04-08T04:16:19.349Z,33.70
2023-04-08T04:19:31.253Z,33.70
2023-04-08T04:22:39.311Z,33.70
2023-04-08T04:25:47.411Z,33.70
2023-04-08T04:28:55.875Z,33.70
2023-04-08T04:32:03.958Z,33.70
2023-04-08T04:35:13.157Z,33.70
2023-04-08T04:38:21.280Z,33.80
2023-04-08T04:41:29.251Z,34.00
2023-04-08T04:44:37.360Z,34.00
2023-04-08T04:47:45.354Z,34.00
2023-04-08T04:50:57.597Z,34.00
2023-04-08T04:54:05.420Z,34.00
2023-04-08T04:57:13.433Z,34.00
2023-04-08T05:00:21.676Z,34.00
2023-04-08T05:03:29.527Z,34.00
2023-04-08T05:06:38.796Z,34.00
2023-04-08T05:09:46.838Z,34.00
2023-04-08T05:12:54.792Z,34.00
2023-04-08T05:16:02.817Z,34.00
2023-04-08T05:19:10.731Z,34.00
2023-04-08T05:22:20.092Z,34.00
2023-04-08T05:25:28.162Z,34.00
2023-04-08T05:28:36.189Z,34.00
2023-04-08T05:31:44.058Z,33.90
2023-04-08T05:34:52.214Z,33.90
2023-04-08T05:38:01.643Z,33.90
2023-04-08T05:41:09.755Z,33.90
2023-04-08T05:44:17.472Z,33.90
2023-04-08T05:47:25.624Z,33.90
2023-04-08T05:50:33.456Z,33.80
2023-04-08T05:53:43.003Z,33.80
2023-04-08T05:56:51.310Z,33.80
2023-04-08T05:59:59.551Z,33.80
2023-04-08T06:03:08.080Z,33.70
2023-04-08T06:06:16.037Z,33.70
2023-04-08T06:09:25.530Z,33.70
2023-04-08T06:12:36.261Z,33.60
2023-04-08T06:15:44.453Z,33.60
2023-04-08T06:18:53.248Z,33.60
2023-04-08T06:22:01.638Z,33.60
2023-04-08T06:25:11.366Z,33.60
2023-04-08T06:28:19.207Z,33.70
2023-04-08T06:31:27.502Z,33.60
2023-04-08T06:34:35.403Z,33.70
2023-04-08T06:37:43.460Z,33.70
2023-04-08T06:40:52.936Z,33.70
2023-04-08T06:44:00.852Z,33.70
2023-04-08T06:47:08.948Z,33.70
2023-04-08T06:50:17.255Z,33.70
2023-04-08T06:53:25.583Z,33.80
2023-04-08T06:56:34.808Z,33.80
2023-04-08T06:59:42.564Z,34.50
2023-04-08T07:02:50.803Z,34.00
2023-04-08T07:05:59.061Z,33.90
2023-04-08T07:09:07.080Z,34.00
2023-04-08T07:12:16.624Z,34.10
2023-04-08T07:15:24.734Z,34.10
2023-04-08T07:18:32.947Z,34.30
2023-04-08T07:21:41.475Z,34.40
2023-04-08T07:24:49.915Z,34.40
2023-04-08T07:27:59.389Z,34.40
2023-04-08T07:31:11.890Z,34.60
2023-04-08T07:34:19.696Z,34.60
2023-04-08T07:37:27.797Z,34.70
2023-04-08T07:40:35.672Z,34.90
2023-04-08T07:43:45.228Z,34.90
2023-04-08T07:46:53.241Z,34.90
2023-04-08T07:50:01.135Z,34.90
2023-04-08T07:53:09.999Z,34.90
2023-04-08T07:56:19.197Z,34.80
2023-04-08T07:59:29.231Z,34.80
2023-04-08T08:02:37.305Z,34.80
2023-04-08T08:05:45.508Z,34.60
2023-04-08T08:08:58.041Z,34.80
2023-04-08T08:12:07.141Z,34.80
2023-04-08T08:15:19.621Z,34.70
2023-04-08T08:18:32.744Z,34.60
2023-04-08T08:21:41.281Z,34.70
2023-04-08T08:24:50.192Z,35.70
2023-04-08T08:27:57.984Z,35.30
2023-04-08T08:31:07.469Z,35.00
2023-04-08T08:34:15.478Z,34.90
2023-04-08T08:37:23.293Z,34.90
2023-04-08T08:40:31.483Z,35.00
2023-04-08T08:43:40.671Z,35.80
2023-04-08T08:46:50.008Z,36.60
2023-04-08T08:49:57.788Z,35.80
2023-04-08T08:53:06.060Z,32.70
2023-04-08T08:56:18.468Z,31.70
2023-04-08T08:59:27.011Z,31.50
2023-04-08T09:02:36.680Z,31.30
2023-04-08T09:05:55.416Z,31.40
2023-04-08T09:09:05.938Z,32.30
2023-04-08T09:12:14.031Z,33.20
2023-04-08T09:15:22.259Z,33.40
2023-04-08T09:18:31.581Z,33.40
2023-04-08T09:21:40.879Z,33.30
2023-04-08T09:24:49.060Z,33.10
2023-04-08T09:27:57.044Z,33.00
2023-04-08T09:31:20.947Z,33.00
2023-04-08T09:34:32.324Z,33.00
2023-04-08T09:37:40.147Z,33.50
2023-04-08T09:40:48.393Z,33.50
2023-04-08T09:43:57.604Z,33.40
2023-04-08T09:47:09.462Z,32.80
2023-04-08T09:50:19.209Z,32.70
2023-04-08T09:53:31.688Z,32.70
2023-04-08T09:56:42.866Z,32.60
2023-04-08T09:59:53.722Z,32.60
2023-04-08T10:03:08.224Z,32.50
2023-04-08T10:06:17.974Z,32.50
2023-04-08T10:09:25.819Z,32.50
2023-04-08T10:12:34.117Z,32.50
2023-04-08T10:15:43.249Z,32.40
2023-04-08T10:18:55.557Z,32.40
2023-04-08T10:22:06.862Z,32.40
2023-04-08T10:25:37.384Z,33.00
2023-04-08T10:28:45.763Z,32.40
2023-04-08T10:31:54.017Z,32.40
2023-04-08T10:35:02.531Z,32.30
2023-04-08T10:38:13.269Z,32.20
2023-04-08T10:41:25.289Z,32.20
2023-04-08T10:44:33.082Z,32.20
2023-04-08T10:47:41.139Z,32.20
2023-04-08T10:50:55.853Z,32.20
2023-04-08T10:54:11.873Z,32.20
2023-04-08T10:57:25.440Z,32.10
2023-04-08T11:00:34.391Z,32.10
2023-04-08T11:03:43.496Z,32.10
2023-04-08T11:06:52.109Z,32.10
2023-04-08T11:10:05.982Z,32.00
2023-04-08T11:13:14.189Z,31.90
2023-04-08T11:16:22.727Z,32.00
2023-04-08T11:19:30.987Z,32.00
2023-04-08T11:22:38.691Z,32.00
2023-04-08T11:25:48.168Z,31.90
2023-04-08T11:28:57.495Z,31.80
2023-04-08T11:32:05.489Z,32.00
2023-04-08T11:35:13.485Z,31.80
2023-04-08T11:38:23.378Z,31.80
2023-04-08T11:41:40.453Z,31.80
2023-04-08T11:44:48.209Z,31.80
2023-04-08T11:47:56.349Z,31.80
2023-04-08T11:51:04.723Z,31.90
2023-04-08T11:54:27.104Z,31.90
2023-04-08T11:57:36.272Z,32.10
2023-04-08T12:00:45.591Z,32.50
2023-04-08T12:04:00.426Z,32.50
2023-04-08T12:07:08.563Z,32.50
2023-04-08T12:10:16.317Z,32.40
2023-04-08T12:13:25.964Z,32.30
2023-04-08T12:16:34.157Z,32.40
2023-04-08T12:19:42.045Z,32.40
2023-04-08T12:22:50.103Z,32.40
2023-04-08T12:25:58.344Z,32.40
2023-04-08T12:29:09.452Z,32.10
2023-04-08T12:32:17.799Z,32.20
2023-04-08T12:35:26.176Z,32.20
2023-04-08T12:38:34.508Z,32.10
2023-04-08T12:41:42.335Z,32.20
2023-04-08T12:44:51.780Z,32.30
2023-04-08T12:47:59.957Z,32.50
2023-04-08T12:51:10.180Z,32.50
2023-04-08T12:54:17.997Z,32.30
2023-04-08T12:57:25.774Z,32.30
2023-04-08T13:00:37.607Z,32.50
2023-04-08T13:03:47.832Z,32.50
2023-04-08T13:06:57.063Z,32.60
2023-04-08T13:10:06.929Z,32.60
2023-04-08T13:13:14.903Z,32.70
2023-04-08T13:16:24.645Z,32.80
2023-04-08T13:19:32.307Z,32.80
2023-04-08T13:22:41.389Z,32.80
2023-04-08T13:25:49.441Z,32.80
2023-04-08T13:28:58.415Z,32.80
2023-04-08T13:32:08.263Z,32.40
2023-04-08T13:35:16.155Z,32.10
2023-04-08T13:38:24.202Z,31.80
2023-04-08T13:41:32.914Z,31.70
2023-04-08T13:44:41.505Z,31.80
2023-04-08T13:47:50.765Z,31.90
2023-04-08T13:50:58.602Z,32.10
2023-04-08T13:54:06.915Z,32.20
2023-04-08T13:57:14.917Z,32.40
2023-04-08T14:00:23.333Z,32.40
2023-04-08T14:03:32.894Z,33.10
2023-04-08T14:06:40.983Z,32.90
2023-04-08T14:09:49.065Z,33.00
2023-04-08T14:12:57.056Z,32.90
2023-04-08T14:16:05.023Z,33.00
2023-04-08T14:19:14.826Z,33.20
2023-04-08T14:22:22.861Z,33.80
2023-04-08T14:25:30.723Z,34.10
2023-04-08T14:28:38.390Z,34.00
2023-04-08T14:31:46.726Z,33.90
2023-04-08T14:34:55.984Z,33.90
2023-04-08T14:38:04.044Z,33.90
2023-04-08T14:41:11.976Z,34.00
2023-04-08T14:44:20.278Z,34.00
2023-04-08T14:47:28.277Z,34.10
2023-04-08T14:50:37.911Z,34.30
2023-04-08T14:53:45.858Z,34.30
2023-04-08T14:56:53.998Z,34.50
2023-04-08T15:00:02.030Z,34.40
2023-04-08T15:03:11.152Z,34.40
2023-04-08T15:06:21.700Z,34.40
2023-04-08T15:09:29.507Z,34.30
2023-04-08T15:12:37.376Z,34.40
2023-04-08T15:15:45.494Z,34.60
2023-04-08T15:18:53.652Z,34.60
2023-04-08T15:22:03.281Z,34.80
2023-04-08T15:25:11.748Z,34.70
2023-04-08T15:28:19.638Z,34.80
2023-04-08T15:31:27.773Z,34.90
2023-04-08T15:34:35.912Z,34.90
2023-04-08T15:37:45.296Z,35.00
2023-04-08T15:40:53.594Z,35.10
2023-04-08T15:44:01.845Z,35.30
2023-04-08T15:47:10.022Z,35.50
2023-04-08T15:50:18.167Z,36.10
2023-04-08T15:53:27.545Z,36.10
2023-04-08T15:56:35.623Z,36.10
2023-04-08T15:59:43.602Z,36.50
2023-04-08T16:02:51.756Z,37.00
2023-04-08T16:05:59.909Z,36.50
2023-04-08T16:09:10.434Z,36.80
2023-04-08T16:12:19.448Z,36.90
2023-04-08T16:15:27.901Z,37.00
2023-04-08T16:18:36.025Z,37.10
2023-04-08T16:21:44.078Z,37.20
2023-04-08T16:24:54.060Z,37.20
2023-04-08T16:28:02.027Z,37.40
2023-04-08T16:31:10.042Z,37.50
2023-04-08T16:34:17.999Z,37.40
2023-04-08T16:37:26.010Z,37.40
2023-04-08T16:40:35.584Z,37.50
2023-04-08T16:43:43.246Z,37.50
2023-04-08T16:46:51.369Z,37.50
2023-04-08T16:49:59.708Z,37.40
2023-04-08T16:53:07.916Z,37.40
2023-04-08T16:56:17.423Z,37.50
2023-04-08T16:59:25.597Z,37.50
2023-04-08T17:02:33.710Z,37.50
2023-04-08T17:05:42.321Z,37.50
2023-04-08T17:08:50.840Z,37.20
2023-04-08T17:12:01.260Z,37.20
2023-04-08T17:15:10.686Z,37.20
2023-04-08T17:18:19.028Z,37.20
2023-04-08T17:21:28.129Z,37.40
2023-04-08T17:24:35.917Z,37.50
2023-04-08T17:27:45.153Z,37.80
2023-04-08T17:30:53.301Z,38.20
2023-04-08T17:34:01.216Z,38.20
2023-04-08T17:37:10.123Z,38.80
2023-04-08T17:40:18.626Z,38.10
2023-04-08T17:43:28.267Z,38.00
2023-04-08T17:46:36.748Z,38.40
2023-04-08T17:49:44.850Z,38.60
2023-04-08T17:52:53.113Z,38.60
2023-04-08T17:56:01.234Z,38.80
2023-04-08T17:59:10.609Z,38.80
2023-04-08T18:02:18.804Z,38.90
2023-04-08T18:05:27.216Z,38.90
2023-04-08T18:08:35.394Z,39.20
2023-04-08T18:11:43.164Z,39.00
2023-04-08T18:14:52.186Z,39.00
2023-04-08T18:17:59.910Z,39.00
2023-04-08T18:21:07.761Z,38.90
2023-04-08T18:24:15.720Z,38.90
2023-04-08T18:27:23.743Z,39.40
2023-04-08T18:30:33.106Z,38.60
2023-04-08T18:33:41.377Z,38.50
2023-04-08T18:36:49.285Z,38.50
2023-04-08T18:39:58.790Z,38.40
2023-04-08T18:43:06.934Z,38.40
2023-04-08T18:46:16.355Z,38.30
2023-04-08T18:49:24.863Z,38.30
2023-04-08T18:52:32.996Z,38.30
2023-04-08T18:55:42.067Z,38.30
2023-04-08T18:58:50.111Z,38.20
2023-04-08T19:01:59.530Z,38.20
2023-04-08T19:05:08.753Z,38.10
2023-04-08T19:08:16.806Z,38.00
2023-04-08T19:11:28.757Z,38.00
2023-04-08T19:14:37.344Z,38.00
2023-04-08T19:17:47.260Z,38.00
2023-04-08T19:20:55.133Z,37.90
2023-04-08T19:24:05.419Z,37.90
2023-04-08T19:27:14.429Z,37.90
2023-04-08T19:30:22.582Z,37.90
2023-04-08T19:33:31.939Z,37.80
2023-04-08T19:36:39.721Z,37.80
2023-04-08T19:39:47.683Z,37.80
2023-04-08T19:42:55.540Z,37.70
2023-04-08T19:46:03.624Z,37.70
2023-04-08T19:49:13.024Z,37.70
2023-04-08T19:52:21.428Z,37.60
2023-04-08T19:55:29.780Z,37.50
2023-04-08T19:58:37.944Z,37.50
2023-04-08T20:01:46.142Z,37.40
2023-04-08T20:04:55.259Z,37.40
2023-04-08T20:08:03.815Z,37.30
2023-04-08T20:11:12.230Z,37.20
2023-04-08T20:14:20.368Z,37.30
2023-04-08T20:17:28.288Z,37.20
2023-04-08T20:20:37.644Z,37.20
2023-04-08T20:23:45.646Z,37.20
2023-04-08T20:26:53.613Z,37.10
2023-04-08T20:30:01.573Z,37.10
2023-04-08T20:33:09.774Z,37.00
2023-04-08T20:36:19.116Z,37.00
2023-04-08T20:39:30.948Z,37.00
2023-04-08T20:42:39.409Z,37.10
2023-04-08T20:45:47.326Z,37.00
2023-04-08T20:48:55.454Z,36.80
2023-04-08T20:52:05.286Z,36.70
2023-04-08T20:55:13.334Z,36.70
2023-04-08T20:58:21.556Z,36.70
2023-04-08T21:01:29.755Z,36.60
2023-04-08T21:04:37.571Z,36.60
2023-04-08T21:07:47.147Z,36.50
2023-04-08T21:10:55.294Z,36.40
2023-04-08T21:14:03.313Z,36.40
2023-04-08T21:17:11.070Z,36.30
2023-04-08T21:20:19.282Z,36.30
2023-04-08T21:23:28.475Z,36.30
2023-04-08T21:26:36.376Z,36.40
2023-04-08T21:29:44.615Z,36.40
2023-04-08T21:32:52.532Z,36.40
2023-04-08T21:36:00.588Z,36.30
2023-04-08T21:39:09.956Z,36.30
2023-04-08T21:42:20.276Z,36.80
2023-04-08T21:45:29.103Z,36.20
2023-04-08T21:48:37.582Z,36.20
2023-04-08T21:51:45.494Z,36.10
2023-04-08T21:54:55.217Z,36.10
2023-04-08T21:58:02.927Z,36.10
2023-04-08T22:01:11.136Z,36.10
2023-04-08T22:04:19.619Z,36.00
2023-04-08T22:07:27.657Z,36.00
2023-04-08T22:10:37.022Z,35.90
2023-04-08T22:13:45.349Z,36.50
2023-04-08T22:16:53.554Z,36.00
2023-04-08T22:20:01.701Z,36.00
2023-04-08T22:23:09.921Z,35.90
2023-04-08T22:26:19.188Z,36.00
2023-04-08T22:29:27.222Z,35.90
2023-04-08T22:32:35.443Z,35.90
2023-04-08T22:35:43.612Z,36.10
2023-04-08T22:38:51.819Z,36.20
2023-04-08T22:42:01.921Z,36.20
2023-04-08T22:45:10.270Z,36.20
2023-04-08T22:48:18.296Z,36.00
2023-04-08T22:51:26.311Z,35.70
2023-04-08T22:54:34.367Z,35.80
2023-04-08T22:57:43.831Z,35.70
2023-04-08T23:00:51.866Z,35.70
2023-04-08T23:03:59.885Z,35.60
2023-04-08T23:07:07.671Z,35.60
2023-04-08T23:10:15.726Z,35.50
2023-04-08T23:13:25.272Z,35.50
2023-04-08T23:16:35.257Z,35.60
2023-04-08T23:19:43.091Z,35.50
2023-04-08T23:22:51.098Z,35.50
2023-04-08T23:25:59.193Z,35.40
2023-04-08T23:29:08.705Z,35.40
2023-04-08T23:32:16.806Z,35.40
2023-04-08T23:35:24.826Z,35.30
2023-04-08T23:38:32.695Z,35.30
2023-04-08T23:41:40.670Z,35.30
2023-04-08T23:44:50.200Z,35.30
2023-04-08T23:47:58.067Z,35.40
2023-04-08T23:51:06.151Z,35.20
2023-04-08T23:54:14.090Z,35.20
2023-04-08T23:57:22.105Z,35.20
